Time;durP1;ratioP1;P1;durP2;ratioP2;P2;SDS_P1;SDS_P2;PMS_P1;PMS_P2;Temp;Humidity;BMP_temperature;BMP_pressure;BME280_temperature;BME280_humidity;BME280_pressure;Samples;Min_cycle;Max_cycle;Signal;HPM_P1;HPM_P2
2021/05/06 00:33:36;;;;;;;4.10;1.33;;;;;;;16.06;44.80;94192.91;2971978;39;20085;-82
2021/05/06 00:35:37;;;;;;;7.78;1.65;;;;;;;16.05;44.85;94201.84;2973433;39;20078;-82
2021/05/06 00:37:58;;;;;;;4.47;1.23;;;;;;;16.03;44.65;94202.06;2975864;39;20068;-82
2021/05/06 00:40:06;;;;;;;2.83;1.30;;;;;;;15.83;45.18;94207.34;2974888;40;20052;-82
2021/05/06 00:42:24;;;;;;;5.22;1.67;;;;;;;15.93;44.92;94202.44;2971113;39;20092;-82
2021/05/06 01:02:50;;;;;;;2.50;1.60;;;;;;;14.52;49.27;94232.09;2975282;39;20050;-85
2021/05/06 01:05:20;;;;;;;3.53;1.45;;;;;;;14.51;49.17;94235.72;2972008;40;20181;-82
2021/05/06 01:09:21;;;;;;;24.10;8.15;;;;;;;14.33;49.67;94236.25;2973483;39;20119;-82
2021/05/06 01:11:44;;;;;;;14.82;5.43;;;;;;;14.24;50.06;94239.19;2969770;39;20404;-81
2021/05/06 01:13:47;;;;;;;12.23;4.82;;;;;;;14.20;50.25;94236.16;2970933;40;20069;-80
2021/05/06 01:15:48;;;;;;;6.28;2.30;;;;;;;13.70;51.42;94240.63;2968298;39;20044;-81
2021/05/06 01:18:07;;;;;;;9.52;2.80;;;;;;;13.62;51.75;94240.78;2970296;40;20174;-81
2021/05/06 01:20:09;;;;;;;4.10;1.58;;;;;;;13.52;52.13;94246.34;2972225;39;20060;-82
2021/05/06 01:22:11;;;;;;;5.20;1.33;;;;;;;13.38;52.94;94244.56;2972959;39;20055;-81
2021/05/06 01:24:12;;;;;;;2.70;1.52;;;;;;;13.34;52.92;94240.72;2966231;40;20053;-82
2021/05/06 01:26:19;;;;;;;4.32;1.45;;;;;;;13.42;52.97;94232.66;2973258;39;20055;-82
2021/05/06 01:28:25;;;;;;;4.97;1.38;;;;;;;13.38;52.81;94239.31;2977655;39;20055;-82
2021/05/06 01:30:44;;;;;;;3.05;1.45;;;;;;;13.45;52.92;94235.75;2971625;39;20052;-84
2021/05/06 01:32:53;;;;;;;2.60;1.77;;;;;;;13.66;52.01;94242.03;2978265;39;20139;-83
2021/05/06 01:35:02;;;;;;;1.90;0.95;;;;;;;13.75;51.81;94235.63;2977218;39;20120;-82
2021/05/06 01:37:12;;;;;;;4.00;1.65;;;;;;;13.83;51.95;94243.38;2973392;39;20056;-81
2021/05/06 01:59:08;;;;;;;3.05;1.27;;;;;;;14.25;51.32;94256.66;2975710;39;20111;-82
2021/05/06 02:01:10;;;;;;;3.60;1.25;;;;;;;14.21;50.96;94250.13;2977599;39;20413;-83
2021/05/06 02:03:11;;;;;;;3.67;1.83;;;;;;;13.86;52.04;94261.44;2974615;39;20145;-82
2021/05/06 02:05:13;;;;;;;3.03;1.23;;;;;;;13.78;52.65;94264.19;2970290;39;20083;-82
2021/05/06 02:07:14;;;;;;;3.85;1.60;;;;;;;13.54;53.20;94265.38;2970466;39;20088;-84
2021/05/06 02:09:16;;;;;;;4.25;1.50;;;;;;;13.66;53.21;94269.16;2970997;39;20079;-82
2021/05/06 02:11:17;;;;;;;3.17;1.23;;;;;;;13.83;52.47;94258.34;2972621;39;20062;-82
2021/05/06 02:13:19;;;;;;;4.10;1.35;;;;;;;13.90;52.37;94269.75;2978659;39;20064;-80
2021/05/06 02:15:27;;;;;;;2.13;1.40;;;;;;;14.06;51.78;94268.66;2974850;39;20084;-81
2021/05/06 02:17:28;;;;;;;3.33;1.27;;;;;;;13.95;51.23;94277.91;2978025;39;20054;-80
2021/05/06 02:19:34;;;;;;;2.58;1.40;;;;;;;14.00;51.91;94270.22;2980021;39;20132;-79
2021/05/06 02:21:35;;;;;;;2.40;1.38;;;;;;;14.15;52.05;94272.78;2978488;39;20079;-82
2021/05/06 02:23:37;;;;;;;2.45;1.30;;;;;;;14.29;51.14;94274.50;2973994;39;20072;-82
2021/05/06 02:25:39;;;;;;;2.80;1.30;;;;;;;14.46;51.25;94274.22;2975726;39;20429;-82
2021/05/06 02:27:40;;;;;;;3.33;1.50;;;;;;;14.59;50.52;94270.91;2975727;39;20315;-81
2021/05/06 02:29:41;;;;;;;4.25;1.25;;;;;;;14.66;50.33;94277.81;2977876;39;20059;-82
2021/05/06 02:31:42;;;;;;;3.05;1.45;;;;;;;14.71;49.76;94278.06;2976857;39;20092;-83
2021/05/06 02:33:45;;;;;;;3.30;1.13;;;;;;;14.77;49.69;94281.72;2975388;39;20071;-81
2021/05/06 02:35:46;;;;;;;2.90;1.45;;;;;;;14.82;50.00;94278.50;2968607;40;20048;-81
2021/05/06 02:37:47;;;;;;;3.47;1.38;;;;;;;14.84;49.53;94282.59;2963781;40;20437;-82
2021/05/06 02:39:49;;;;;;;3.13;1.30;;;;;;;14.87;49.85;94284.03;2973968;39;20059;-82
2021/05/06 02:41:50;;;;;;;3.92;1.38;;;;;;;14.85;49.32;94278.13;2975426;39;20400;-82
2021/05/06 02:43:51;;;;;;;3.63;1.98;;;;;;;14.88;49.57;94269.81;2970276;40;20059;-82
2021/05/06 02:45:52;;;;;;;3.38;1.60;;;;;;;14.92;49.61;94281.59;2975379;39;20125;-82
2021/05/06 02:47:54;;;;;;;2.25;1.27;;;;;;;14.97;49.65;94276.56;2976734;39;20052;-80
2021/05/06 02:49:55;;;;;;;3.22;1.38;;;;;;;14.98;49.46;94280.00;2971297;39;20382;-82
2021/05/06 02:52:04;;;;;;;3.17;1.25;;;;;;;14.98;49.73;94277.38;2967240;40;20056;-82
2021/05/06 02:54:06;;;;;;;2.92;1.50;;;;;;;14.97;50.04;94281.84;2970592;40;20059;-82
2021/05/06 02:59:07;;;;;;;4.35;1.80;;;;;;;14.98;50.24;94288.72;2974359;39;20080;-81
2021/05/06 03:03:02;;;;;;;2.63;1.50;;;;;;;15.02;50.31;94284.69;2972636;39;19984;-82
2021/05/06 03:05:03;;;;;;;5.03;1.50;;;;;;;14.94;50.44;94292.78;2972034;39;20047;-81
2021/05/06 03:07:07;;;;;;;2.65;1.33;;;;;;;14.88;50.60;94301.47;2970016;39;20086;-81
2021/05/06 03:09:25;;;;;;;4.88;1.10;;;;;;;14.87;49.98;94300.66;2975883;39;20343;-81
2021/05/06 03:11:41;;;;;;;4.47;1.42;;;;;;;14.70;50.99;94299.34;2978206;39;20064;-82
2021/05/06 03:23:02;;;;;;;6.30;1.63;;;;;;;14.66;52.52;94316.56;2974438;39;20355;-83
2021/05/06 03:25:07;;;;;;;4.38;2.17;;;;;;;14.76;52.63;94318.84;2961839;40;20177;-83
2021/05/06 03:27:14;;;;;;;3.30;1.33;;;;;;;14.88;52.32;94314.66;2976929;39;20046;-81
2021/05/06 03:29:33;;;;;;;3.20;1.50;;;;;;;14.93;52.49;94322.81;2973772;39;20128;-82
2021/05/06 03:31:59;;;;;;;4.43;1.60;;;;;;;14.94;52.93;94333.13;2968555;40;20104;-82
2021/05/06 04:03:19;;;;;;;4.70;2.05;;;;;;;14.91;50.72;94357.28;2977977;39;20083;-84
2021/05/06 04:15:29;;;;;;;6.40;1.45;;;;;;;15.40;49.15;94381.06;2966989;40;20424;-70
2021/05/06 04:16:58;;;;;;;4.80;1.70;;;;;;;15.62;48.41;94384.41;2961942;39;20067;-82
2021/05/06 04:26:11;;;;;;;4.82;1.92;;;;;;;15.74;48.22;94401.31;2972953;39;20056;-82
2021/05/06 04:28:20;;;;;;;4.55;1.73;;;;;;;15.53;48.26;94395.16;2967291;40;20084;-82
2021/05/06 04:30:44;;;;;;;7.35;1.95;;;;;;;15.64;48.19;94404.31;2970740;39;20056;-82
2021/05/06 04:37:25;;;;;;;6.60;2.00;;;;;;;14.90;49.00;94415.47;2969816;39;20062;-82
2021/05/06 04:39:39;;;;;;;8.55;2.97;;;;;;;15.04;49.30;94411.13;2975225;39;20431;-83
2021/05/06 04:55:24;;;;;;;4.03;1.80;;;;;;;14.52;50.65;94435.06;2967355;39;20445;-70
2021/05/06 05:06:21;;;;;;;4.60;2.08;;;;;;;14.78;51.05;94449.50;2970151;39;20064;-69
2021/05/06 05:08:23;;;;;;;5.32;2.17;;;;;;;15.02;50.41;94447.44;2970603;39;20064;-69
2021/05/06 05:19:33;;;;;;;3.63;1.73;;;;;;;14.92;50.74;94453.03;2970644;39;20060;-70
2021/05/06 05:25:46;;;;;;;5.20;1.90;;;;;;;15.29;50.15;94464.25;2967969;40;20096;-71
2021/05/06 05:27:47;;;;;;;5.03;2.10;;;;;;;15.49;49.45;94464.38;2967781;40;20052;-70
2021/05/06 05:29:50;;;;;;;4.97;2.10;;;;;;;15.70;48.88;94463.44;2967778;39;20091;-70
2021/05/06 05:31:52;;;;;;;4.85;1.88;;;;;;;15.92;48.16;94459.72;2975143;39;20095;-70
2021/05/06 05:34:01;;;;;;;3.50;1.48;;;;;;;15.99;47.94;94462.38;2968071;40;20390;-71
2021/05/06 05:38:27;;;;;;;4.10;2.33;;;;;;;16.02;47.07;94475.19;2966642;39;20093;-69
2021/05/06 05:40:37;;;;;;;3.35;1.30;;;;;;;16.03;46.31;94476.81;2967504;39;20052;-72
2021/05/06 05:56:11;;;;;;;9.70;1.85;;;;;;;16.12;45.43;94485.38;2969132;39;20072;-70
2021/05/06 05:58:13;;;;;;;3.42;1.65;;;;;;;16.34;45.40;94480.78;2967540;40;20045;-71
2021/05/06 06:00:14;;;;;;;5.43;1.60;;;;;;;16.20;45.48;94492.31;2968170;39;20064;-72
2021/05/06 06:02:16;;;;;;;5.78;1.83;;;;;;;16.34;45.50;94496.63;2973972;39;20298;-71
2021/05/06 06:04:18;;;;;;;3.25;1.27;;;;;;;16.48;44.65;94505.44;2968554;40;20337;-83
2021/05/06 06:06:19;;;;;;;3.15;1.60;;;;;;;16.51;44.75;94500.53;2967856;40;20055;-82
2021/05/06 06:08:24;;;;;;;5.03;1.70;;;;;;;16.56;44.78;94507.84;2972730;39;20141;-83
2021/05/06 06:10:26;;;;;;;5.70;1.45;;;;;;;16.53;45.00;94495.06;2969106;40;20059;-83
2021/05/06 06:12:27;;;;;;;3.80;1.65;;;;;;;16.22;46.63;94503.50;2975998;39;20058;-81
2021/05/06 06:14:43;;;;;;;3.15;1.77;;;;;;;16.23;46.88;94503.31;2976102;39;20072;-82
2021/05/06 06:16:44;;;;;;;2.70;1.52;;;;;;;15.91;47.87;94505.63;2976931;39;20071;-83
2021/05/06 06:18:51;;;;;;;4.68;2.10;;;;;;;15.73;48.28;94516.72;2975501;39;20052;-83
2021/05/06 06:21:02;;;;;;;4.55;1.75;;;;;;;15.85;48.19;94526.72;2974957;39;20458;-82
2021/05/06 06:23:03;;;;;;;3.83;1.85;;;;;;;15.66;48.27;94528.22;2968701;39;20051;-83
2021/05/06 06:25:05;;;;;;;4.07;1.58;;;;;;;15.76;48.55;94531.34;2975328;39;20460;-81
2021/05/06 06:27:06;;;;;;;5.43;1.77;;;;;;;15.81;48.79;94536.88;2973045;39;20070;-81
2021/05/06 06:29:14;;;;;;;3.78;1.60;;;;;;;16.05;48.71;94542.69;2973815;39;20063;-84
2021/05/06 06:32:02;;;;;;;3.38;1.77;;;;;;;16.45;47.48;94535.69;2975419;39;20059;-82
2021/05/06 06:33:37;;;;;;;4.47;1.60;;;;;;;15.86;48.20;94537.09;2968853;39;20056;-70
2021/05/06 06:35:38;;;;;;;4.97;1.70;;;;;;;15.93;48.02;94532.66;2970763;39;20063;-72
2021/05/06 06:37:39;;;;;;;7.90;2.63;;;;;;;16.10;47.38;94543.72;2967211;40;20185;-70
2021/05/06 06:39:42;;;;;;;3.20;1.45;;;;;;;16.20;46.96;94540.72;2966429;39;20064;-71
2021/05/06 06:41:44;;;;;;;5.72;1.70;;;;;;;16.14;46.28;94539.66;2967856;40;20451;-71
2021/05/06 06:43:48;;;;;;;2.33;1.20;;;;;;;16.30;45.84;94537.69;2968287;39;20088;-71
2021/05/06 06:45:49;;;;;;;2.60;1.50;;;;;;;16.05;46.01;94538.22;2968819;39;20366;-70
2021/05/06 06:47:54;;;;;;;6.00;2.50;;;;;;;16.05;46.70;94537.41;2967520;40;20235;-69
2021/05/06 06:49:55;;;;;;;3.72;1.40;;;;;;;16.14;47.43;94533.56;2966024;40;20048;-71
2021/05/06 06:51:56;;;;;;;5.22;1.63;;;;;;;16.40;46.69;94539.97;2967692;40;20153;-69
2021/05/06 06:53:58;;;;;;;5.85;1.90;;;;;;;16.80;46.34;94538.28;2967350;39;20363;-70
2021/05/06 06:55:59;;;;;;;4.25;1.80;;;;;;;16.44;46.72;94549.13;2960677;40;20084;-70
2021/05/06 06:58:12;;;;;;;3.25;1.58;;;;;;;16.49;47.04;94549.34;2971065;39;20120;-70
2021/05/06 07:00:13;;;;;;;3.58;1.55;;;;;;;16.54;46.60;94542.47;2967299;40;20068;-70
2021/05/06 07:02:15;;;;;;;6.97;2.13;;;;;;;16.23;47.24;94548.25;2974720;39;20044;-70
2021/05/06 07:04:16;;;;;;;4.93;1.60;;;;;;;16.38;47.44;94546.25;2966318;39;20066;-71
2021/05/06 07:06:17;;;;;;;2.97;1.25;;;;;;;16.56;46.76;94550.16;2969013;39;20066;-71
2021/05/06 07:08:20;;;;;;;7.00;2.72;;;;;;;16.77;46.13;94552.66;2973304;39;20116;-71
2021/05/06 07:10:22;;;;;;;5.37;1.50;;;;;;;17.06;45.81;94550.72;2973591;39;20305;-69
2021/05/06 07:12:23;;;;;;;7.43;2.03;;;;;;;17.14;45.18;94541.75;2967966;39;20161;-71
2021/05/06 07:14:24;;;;;;;5.63;2.00;;;;;;;17.18;44.80;94554.38;2966072;40;20102;-71
2021/05/06 07:16:44;;;;;;;5.00;2.38;;;;;;;16.90;45.70;94556.38;2967083;40;20081;-73
2021/05/06 07:18:46;;;;;;;5.53;1.90;;;;;;;16.86;45.54;94548.03;2971641;39;20123;-72
2021/05/06 07:20:48;;;;;;;6.22;3.53;;;;;;;16.76;46.62;94561.63;2968623;39;20397;-72
2021/05/06 07:22:50;;;;;;;6.07;2.53;;;;;;;16.45;47.47;94553.41;2965462;40;20114;-69
2021/05/06 07:24:53;;;;;;;8.90;4.63;;;;;;;16.69;46.85;94559.97;2967844;39;20059;-72
2021/05/06 07:26:56;;;;;;;5.43;2.70;;;;;;;16.22;47.03;94561.66;2966790;40;20063;-71
2021/05/06 07:28:59;;;;;;;8.35;2.50;;;;;;;16.00;47.59;94564.41;2970256;39;20063;-71
2021/05/06 07:31:03;;;;;;;5.18;2.40;;;;;;;16.29;47.81;94555.38;2971009;39;20139;-72
2021/05/06 07:33:12;;;;;;;3.60;1.85;;;;;;;16.78;47.13;94564.09;2966778;40;20056;-71
2021/05/06 07:35:16;;;;;;;6.60;2.13;;;;;;;16.75;46.54;94559.97;2974491;39;20068;-71
2021/05/06 07:37:18;;;;;;;11.48;4.18;;;;;;;16.84;45.95;94557.19;2974796;39;20055;-72
2021/05/06 07:39:23;;;;;;;4.82;1.60;;;;;;;16.78;46.52;94564.09;2968058;39;20309;-72
2021/05/06 07:41:26;;;;;;;8.82;4.93;;;;;;;16.86;46.80;94557.81;2967050;40;20301;-70
2021/05/06 07:43:31;;;;;;;3.85;1.50;;;;;;;16.97;46.80;94555.38;2965572;40;20061;-71
2021/05/06 07:45:34;;;;;;;5.30;2.38;;;;;;;16.92;47.34;94543.78;2966899;40;20144;-71
2021/05/06 07:47:37;;;;;;;;;;;;;;;16.99;47.19;94560.47;2967300;40;20083;-72
2021/05/06 07:49:41;;;;;;;5.32;1.90;;;;;;;17.11;47.21;94552.75;2968434;40;20100;-70
2021/05/06 07:51:46;;;;;;;4.18;2.00;;;;;;;16.96;46.48;94551.09;2968285;40;20149;-70
2021/05/06 07:53:51;;;;;;;3.90;2.10;;;;;;;16.91;47.22;94547.44;2966278;39;20065;-71
2021/05/06 07:55:57;;;;;;;6.07;1.30;;;;;;;16.85;47.06;94537.66;2966124;40;20088;-71
2021/05/06 07:58:02;;;;;;;6.78;1.83;;;;;;;17.07;46.92;94544.38;2966092;40;20122;-71
2021/05/06 08:00:09;;;;;;;6.78;2.67;;;;;;;16.96;47.42;94551.09;2968051;39;20052;-71
2021/05/06 08:02:11;;;;;;;3.13;1.70;;;;;;;17.22;47.40;94546.03;2974577;39;20083;-71
2021/05/06 08:04:13;;;;;;;5.68;2.25;;;;;;;17.40;46.49;94540.91;2973222;39;20313;-71
2021/05/06 08:06:15;;;;;;;6.00;2.10;;;;;;;17.80;46.24;94546.16;2970672;39;20088;-72
2021/05/06 08:08:16;;;;;;;5.30;2.20;;;;;;;17.98;45.29;94546.38;2966048;40;20087;-70
2021/05/06 08:10:18;;;;;;;5.40;2.63;;;;;;;18.20;44.82;94551.41;2966880;40;20080;-71
2021/05/06 08:12:20;;;;;;;4.80;2.15;;;;;;;18.00;44.78;94551.44;2971754;39;20413;-71
2021/05/06 08:14:22;;;;;;;3.92;1.80;;;;;;;17.54;45.40;94542.53;2973918;39;20192;-71
2021/05/06 08:16:23;;;;;;;3.35;1.70;;;;;;;17.43;45.96;94550.31;2968214;40;20061;-72
2021/05/06 08:18:25;;;;;;;4.53;1.75;;;;;;;17.50;45.47;94545.81;2971420;40;20091;-69
2021/05/06 08:20:26;;;;;;;3.88;1.70;;;;;;;17.65;45.44;94542.94;2973828;39;20056;-71
2021/05/06 08:22:28;;;;;;;5.65;1.88;;;;;;;17.71;45.66;94547.41;2966621;40;20060;-69
2021/05/06 08:24:29;;;;;;;5.88;1.92;;;;;;;17.56;45.10;94545.81;2970764;39;20149;-71
2021/05/06 08:26:31;;;;;;;7.57;2.35;;;;;;;17.90;45.02;94554.53;2973943;39;20059;-70
2021/05/06 08:28:33;;;;;;;3.83;2.30;;;;;;;17.97;44.42;94557.16;2973785;39;20080;-70
2021/05/06 08:30:34;;;;;;;4.07;2.00;;;;;;;18.32;43.83;94556.84;2971423;39;20472;-71
2021/05/06 08:32:36;;;;;;;5.32;2.10;;;;;;;18.46;43.12;94558.41;2967281;39;20467;-70
2021/05/06 08:34:37;;;;;;;5.25;2.33;;;;;;;18.37;43.74;94549.91;2966550;40;20292;-70
2021/05/06 08:36:39;;;;;;;3.03;1.90;;;;;;;18.27;43.97;94549.53;2966668;40;20048;-71
2021/05/06 08:38:40;;;;;;;3.75;2.60;;;;;;;18.61;44.25;94560.81;2967389;40;20314;-71
2021/05/06 08:40:41;;;;;;;2.72;1.80;;;;;;;18.20;44.32;94562.00;2966808;39;20056;-70
2021/05/06 08:42:43;;;;;;;6.53;1.92;;;;;;;18.02;44.56;94560.00;2968548;39;20068;-73
2021/05/06 08:44:44;;;;;;;5.05;1.98;;;;;;;18.12;44.55;94556.94;2969914;39;20075;-71
2021/05/06 08:47:02;;;;;;;2.95;1.60;;;;;;;18.39;44.15;94555.81;2967459;40;20064;-70
2021/05/06 08:49:05;;;;;;;7.03;2.40;;;;;;;18.96;43.20;94558.56;2968025;40;20161;-71
2021/05/06 08:51:07;;;;;;;4.28;2.08;;;;;;;18.97;42.62;94557.56;2969296;40;20328;-71
2021/05/06 08:53:10;;;;;;;4.25;1.95;;;;;;;18.91;42.41;94558.41;2967431;40;20614;-72
2021/05/06 08:55:11;;;;;;;3.87;1.70;;;;;;;19.14;42.64;94562.34;2968420;40;20041;-72
2021/05/06 08:57:13;;;;;;;4.28;2.45;;;;;;;18.71;42.57;94573.59;2967155;40;20190;-71
2021/05/06 08:59:15;;;;;;;4.75;1.50;;;;;;;18.81;43.08;94561.53;2966765;40;20056;-72
2021/05/06 09:01:17;;;;;;;2.95;1.80;;;;;;;19.32;40.85;94561.59;2969113;39;20133;-72
2021/05/06 09:03:18;;;;;;;2.83;1.40;;;;;;;19.33;40.17;94556.06;2971819;39;20377;-72
2021/05/06 09:05:22;;;;;;;3.42;1.60;;;;;;;19.29;39.71;94557.50;2972503;39;20059;-70
2021/05/06 09:07:23;;;;;;;3.75;1.60;;;;;;;18.68;40.10;94568.72;2972908;39;20044;-69
2021/05/06 09:09:35;;;;;;;6.28;1.80;;;;;;;18.36;40.60;94577.44;2975141;39;20060;-71
2021/05/06 09:11:40;;;;;;;2.40;1.30;;;;;;;18.55;40.60;94567.75;2972793;39;20143;-71
2021/05/06 09:13:42;;;;;;;6.57;1.73;;;;;;;18.48;40.56;94582.09;2970283;39;20063;-71
2021/05/06 09:15:49;;;;;;;7.82;1.65;;;;;;;18.48;40.16;94568.84;2970862;39;20347;-73
2021/05/06 09:17:53;;;;;;;3.63;2.03;;;;;;;18.37;39.71;94578.25;2966493;39;20144;-71
2021/05/06 09:20:03;;;;;;;4.85;1.52;;;;;;;18.53;39.53;94577.75;2967907;40;20308;-70
2021/05/06 09:22:05;;;;;;;3.65;1.85;;;;;;;18.53;39.85;94569.81;2972356;39;20071;-73
2021/05/06 09:24:08;;;;;;;3.03;2.00;;;;;;;18.38;40.11;94570.06;2969480;39;20053;-71
2021/05/06 09:26:09;;;;;;;2.60;1.58;;;;;;;18.55;39.80;94561.66;2967647;40;20063;-71
2021/05/06 09:28:16;;;;;;;3.50;2.17;;;;;;;18.52;39.63;94572.66;2972505;39;20059;-71
2021/05/06 09:30:17;;;;;;;4.03;1.90;;;;;;;18.77;39.33;94557.63;2966488;40;20294;-70
2021/05/06 09:32:22;;;;;;;3.67;1.65;;;;;;;18.96;38.21;94565.72;2968619;39;20362;-70
2021/05/06 09:34:35;;;;;;;4.20;1.55;;;;;;;18.92;38.10;94567.19;2968959;39;20059;-71
2021/05/06 09:36:37;;;;;;;3.03;1.30;;;;;;;18.79;37.66;94573.38;2966373;40;20044;-71
2021/05/06 09:38:58;;;;;;;3.75;2.28;;;;;;;18.87;37.68;94564.38;2966609;39;20083;-70
2021/05/06 09:41:02;;;;;;;3.75;1.60;;;;;;;19.08;36.52;94564.03;2969886;39;20391;-71
2021/05/06 09:43:04;;;;;;;4.28;1.40;;;;;;;19.24;36.07;94558.16;2970734;39;20346;-70
2021/05/06 09:45:06;;;;;;;3.63;1.20;;;;;;;19.31;36.24;94560.78;2967454;40;20100;-71
2021/05/06 09:47:15;;;;;;;5.13;1.67;;;;;;;19.44;34.97;94565.16;2968804;39;20373;-71
2021/05/06 09:49:18;;;;;;;1.77;1.15;;;;;;;19.59;35.11;94549.69;2971811;39;20145;-71
2021/05/06 09:51:29;;;;;;;5.25;1.20;;;;;;;19.62;34.83;94554.59;2968042;40;20333;-70
2021/05/06 09:53:32;;;;;;;2.55;1.40;;;;;;;19.86;35.48;94559.31;2966723;39;20379;-71
2021/05/06 09:55:33;;;;;;;5.07;1.80;;;;;;;19.76;35.69;94571.25;2967842;39;20143;-69
2021/05/06 09:57:36;;;;;;;1.65;1.10;;;;;;;19.71;34.47;94554.34;2967872;40;20067;-72
2021/05/06 09:59:39;;;;;;;3.42;1.70;;;;;;;19.58;35.53;94568.53;2967619;40;20401;-70
2021/05/06 10:01:41;;;;;;;4.50;1.50;;;;;;;19.96;34.81;94565.75;2972301;39;20059;-72
2021/05/06 10:03:44;;;;;;;3.63;1.27;;;;;;;19.33;35.22;94568.53;2974437;39;20302;-70
2021/05/06 10:05:47;;;;;;;4.97;1.27;;;;;;;19.36;35.30;94554.81;2973864;39;20338;-73
2021/05/06 10:07:52;;;;;;;2.13;1.50;;;;;;;19.60;34.85;94551.34;2967403;40;20048;-72
2021/05/06 10:10:05;;;;;;;3.40;1.70;;;;;;;19.52;35.37;94553.47;2966670;40;20107;-70
2021/05/06 10:12:06;;;;;;;3.10;1.20;;;;;;;19.46;35.69;94549.81;2972824;39;20373;-71
2021/05/06 10:14:09;;;;;;;3.25;1.50;;;;;;;19.60;34.99;94551.34;2975387;39;20060;-72
2021/05/06 10:16:11;;;;;;;4.13;1.30;;;;;;;19.84;34.64;94547.03;2973848;39;20067;-72
2021/05/06 10:18:14;;;;;;;2.57;1.53;;;;;;;19.93;34.42;94552.88;2969844;39;20052;-71
2021/05/06 10:20:15;;;;;;;5.28;1.25;;;;;;;19.36;35.61;94557.47;2962563;40;20061;-71
2021/05/06 10:22:19;;;;;;;3.45;1.27;;;;;;;19.25;35.52;94561.63;2966491;40;20341;-70
2021/05/06 10:24:21;;;;;;;3.30;1.40;;;;;;;19.46;34.90;94555.13;2973021;39;20181;-70
2021/05/06 10:26:23;;;;;;;2.95;1.00;;;;;;;19.82;34.71;94554.44;2974258;39;20067;-71
2021/05/06 10:28:25;;;;;;;2.90;1.20;;;;;;;19.84;34.96;94568.31;2974102;39;20056;-73
2021/05/06 10:30:26;;;;;;;4.72;1.33;;;;;;;20.05;34.67;94556.44;2973270;39;20067;-70
2021/05/06 10:32:29;;;;;;;3.58;1.50;;;;;;;20.22;34.27;94548.69;2965947;40;20177;-70
2021/05/06 10:34:33;;;;;;;9.15;1.70;;;;;;;20.56;34.17;94553.59;2967402;40;20051;-72
2021/05/06 10:36:35;;;;;;;3.50;1.50;;;;;;;20.42;33.71;94560.94;2973474;39;20304;-71
2021/05/06 10:38:42;;;;;;;4.28;1.30;;;;;;;20.36;33.90;94559.97;2973120;39;20044;-69
2021/05/06 10:40:43;;;;;;;4.78;1.25;;;;;;;20.46;32.81;94565.59;2966188;40;20052;-70
2021/05/06 10:42:44;;;;;;;6.20;1.55;;;;;;;19.78;33.82;94573.69;2967461;40;20062;-71
2021/05/06 10:44:46;;;;;;;2.53;1.30;;;;;;;20.02;33.89;94567.50;2966965;40;20056;-71
2021/05/06 10:46:56;;;;;;;3.35;1.10;;;;;;;20.31;33.62;94565.16;2965931;40;20060;-71
2021/05/06 10:49:02;;;;;;;2.88;1.10;;;;;;;20.87;33.70;94555.28;2967858;39;20040;-71
2021/05/06 10:51:25;;;;;;;4.28;1.48;;;;;;;21.28;32.84;94567.75;2970856;39;20117;-72
2021/05/06 10:53:28;;;;;;;2.05;1.27;;;;;;;21.39;32.62;94557.38;2968330;39;20073;-72
2021/05/06 10:55:49;;;;;;;4.72;1.42;;;;;;;20.73;33.79;94567.94;2972467;39;20094;-71
2021/05/06 10:57:50;;;;;;;5.43;1.70;;;;;;;20.62;33.73;94577.50;2967263;40;20104;-70
2021/05/06 10:59:51;;;;;;;2.60;1.55;;;;;;;20.28;34.17;94568.25;2968816;39;20063;-83
2021/05/06 11:01:54;;;;;;;4.80;1.33;;;;;;;20.31;34.53;94565.16;2971788;39;20145;-83
2021/05/06 11:04:03;;;;;;;3.25;1.30;;;;;;;20.45;33.74;94565.81;2967157;40;20100;-82
2021/05/06 11:06:05;;;;;;;3.50;1.25;;;;;;;20.35;33.79;94568.16;2969919;39;20383;-82
2021/05/06 11:08:07;;;;;;;2.03;1.10;;;;;;;20.23;34.20;94568.13;2974916;39;20140;-81
2021/05/06 11:10:09;;;;;;;3.97;1.70;;;;;;;20.01;34.37;94567.75;2973830;39;20274;-82
2021/05/06 11:12:16;;;;;;;3.90;1.10;;;;;;;19.63;35.81;94566.84;2970551;40;20398;-82
2021/05/06 11:14:17;;;;;;;2.05;1.10;;;;;;;19.96;35.97;94571.06;2975962;39;20413;-82
2021/05/06 11:16:19;;;;;;;3.08;1.33;;;;;;;20.10;35.26;94576.25;2975454;39;20072;-83
2021/05/06 11:18:43;;;;;;;7.25;1.20;;;;;;;20.49;34.99;94569.66;2967091;39;20138;-82
2021/05/06 11:20:46;;;;;;;4.32;1.52;;;;;;;20.72;34.31;94579.63;2968952;40;20048;-83
2021/05/06 11:22:48;;;;;;;2.45;1.38;;;;;;;21.07;34.58;94581.59;2967782;40;20076;-80
2021/05/06 11:24:49;;;;;;;4.95;2.25;;;;;;;19.93;35.40;94584.78;2970933;39;20048;-83
2021/05/06 11:26:59;;;;;;;7.00;3.05;;;;;;;19.88;36.08;94574.00;2977250;39;20117;-83
2021/05/06 11:29:00;;;;;;;7.15;3.97;;;;;;;20.20;35.67;94569.38;2975452;39;20132;-83
2021/05/06 11:31:02;;;;;;;4.25;2.33;;;;;;;20.61;34.91;94567.91;2972092;39;20060;-83
2021/05/06 11:35:22;;;;;;;3.47;1.67;;;;;;;20.90;33.86;94554.81;2975261;39;20048;-83
2021/05/06 11:37:27;;;;;;;3.13;1.33;;;;;;;20.92;33.83;94546.59;2968648;39;20133;-82
2021/05/06 11:39:30;;;;;;;6.68;1.60;;;;;;;20.90;34.25;94554.00;2971442;39;20383;-82
2021/05/06 11:41:33;;;;;;;6.22;2.15;;;;;;;20.75;34.90;94549.09;2968910;39;20075;-82
2021/05/06 11:43:46;;;;;;;2.92;1.20;;;;;;;20.33;34.52;94559.63;2976393;39;20055;-81
2021/05/06 11:45:47;;;;;;;4.03;1.60;;;;;;;20.48;34.61;94572.53;2976465;39;20429;-83
2021/05/06 11:47:49;;;;;;;2.53;1.70;;;;;;;20.59;34.70;94547.88;2974924;39;20044;-81
2021/05/06 11:49:51;;;;;;;4.68;1.90;;;;;;;20.49;34.41;94568.84;2973835;39;20089;-84
2021/05/06 11:51:53;;;;;;;6.90;1.80;;;;;;;20.42;33.72;94575.06;2976481;39;20063;-83
2021/05/06 11:54:08;;;;;;;5.30;1.25;;;;;;;20.28;34.17;94560.28;2968167;39;20087;-81
2021/05/06 11:56:13;;;;;;;2.58;1.10;;;;;;;20.41;33.76;94564.63;2973092;39;20290;-84
2021/05/06 11:58:22;;;;;;;2.38;1.20;;;;;;;20.02;34.64;94564.84;2978676;40;20059;-83
2021/05/06 12:00:25;;;;;;;4.00;1.38;;;;;;;20.50;34.23;94554.47;2970769;40;20063;-81
2021/05/06 12:02:27;;;;;;;2.83;1.45;;;;;;;20.77;33.57;94555.00;2983073;39;20040;-82
2021/05/06 12:04:33;;;;;;;3.30;1.37;;;;;;;20.84;32.49;94550.38;2978651;39;20067;-82
2021/05/06 12:06:36;;;;;;;2.67;1.35;;;;;;;21.10;32.46;94543.88;2977100;39;20044;-82
2021/05/06 12:08:45;;;;;;;2.33;1.00;;;;;;;21.53;32.37;94553.47;2975772;39;20068;-82
2021/05/06 12:10:47;;;;;;;4.93;1.23;;;;;;;21.38;32.33;94545.91;2974144;39;20067;-82
2021/05/06 12:13:02;;;;;;;3.45;1.85;;;;;;;21.04;32.63;94545.59;2969549;39;20416;-82
2021/05/06 12:15:04;;;;;;;3.13;1.10;;;;;;;21.34;32.68;94541.22;2971576;40;20060;-70
2021/05/06 12:17:06;;;;;;;3.25;1.20;;;;;;;21.50;32.26;94537.13;2973412;39;20442;-71
2021/05/06 12:19:10;;;;;;;2.75;1.27;;;;;;;21.71;32.53;94527.75;2968938;39;20056;-71
2021/05/06 12:21:11;;;;;;;;;;;;;;;21.90;31.71;94537.25;2965440;40;20104;-72
2021/05/06 12:23:13;;;;;;;2.67;1.30;;;;;;;21.75;31.96;94543.06;2970793;39;19965;-72
2021/05/06 12:25:14;;;;;;;2.67;1.30;;;;;;;21.93;31.75;94539.44;2959137;40;20458;-71
2021/05/06 12:27:17;;;;;;;3.03;1.20;;;;;;;21.54;31.74;94541.75;2966930;40;20347;-71
2021/05/06 12:29:23;;;;;;;3.42;1.30;;;;;;;21.65;31.91;94538.28;2968276;40;20056;-70
2021/05/06 12:31:26;;;;;;;3.72;1.15;;;;;;;21.50;32.31;94537.94;2966812;40;20142;-70
2021/05/06 12:33:32;;;;;;;3.45;1.33;;;;;;;21.73;32.48;94541.66;2972260;39;20059;-71
2021/05/06 12:35:53;;;;;;;3.25;1.23;;;;;;;21.67;32.09;94533.53;2972341;39;20092;-72
2021/05/06 12:38:01;;;;;;;4.40;1.27;;;;;;;21.85;31.56;94532.63;2966507;40;20037;-81
2021/05/06 12:40:05;;;;;;;4.93;1.92;;;;;;;21.79;31.52;94530.03;2966255;40;20084;-82
2021/05/06 12:42:07;;;;;;;2.60;1.30;;;;;;;22.00;31.59;94526.78;2975572;39;20143;-82
2021/05/06 12:44:08;;;;;;;2.95;1.30;;;;;;;21.89;32.18;94532.94;2967787;40;20071;-84
2021/05/06 12:46:10;;;;;;;2.88;1.23;;;;;;;20.86;32.87;94543.81;2959315;40;20095;-83
2021/05/06 12:48:12;;;;;;;3.67;2.00;;;;;;;20.62;33.52;94539.41;2972897;39;20087;-82
2021/05/06 12:50:25;;;;;;;2.78;1.00;;;;;;;20.95;32.99;94543.47;2975121;39;20422;-84
2021/05/06 12:52:46;;;;;;;3.00;1.20;;;;;;;21.32;32.74;94524.69;2973344;39;20072;-83
2021/05/06 12:54:47;;;;;;;2.83;1.52;;;;;;;21.71;32.24;94525.09;2960851;39;20045;-83
2021/05/06 12:56:49;;;;;;;3.92;1.23;;;;;;;21.84;31.31;94524.84;2974094;39;20059;-83
2021/05/06 12:58:50;;;;;;;4.15;1.20;;;;;;;21.93;31.55;94531.44;2970090;39;20105;-83